ハルビン の空港の天気 - METARとTAF

ハルビン太平国際空港 ( ZYHB / HRB ) - 中国 黒竜江省ハルビン市
飛行場実況気象(Metar)
観測時間06/24 17:00 CST (06/24 09:00 UTC)
風向・風速南南西 5m/s
視程10km以上
天気現象
なし
気温31℃
湿度38%
気圧1005hPa
METARZYHB 240900Z 20005MPS CAVOK 31/15 Q1005 NOSIG
過去の天気等 Google飛行場航空写真 Wunderground天気予報

過去48時間のMETAR

飛行場予報(TAF)
発表時間: 6/24 11:00 CST (6/24 03:00 UTC)
予報対象時間: 24日14時 CST ~ 25日14時 CST
風向・風速南 6m/s 瞬間風速 11m/s
視程6000m
全天の4割程度の雲 雲底高度 910m
TAF ZYHB 240300Z 2406/2506 18006G11MPS 6000 SCT030 TX32/2406Z TN22/2421Z